This is the latest recevied weather packets stored in our database for station/object KE5BM-13. If no packets are shown the sender has not sent any weather packets the latest 1 day(s).
| Time | Temp. | Humidity | Pressure | Rain* | Wind** | Luminosity | Snow |
|---|---|---|---|---|---|---|---|
| 1778033032 | 14.44° C | 85% | 1012.8 hPa | 0 mm | 2.68 m/s, 126° | - | - |
| 1778032734 | 14.44° C | 85% | 1012.8 hPa | 0 mm | 2.24 m/s, 190° | - | - |
| 1778032432 | 14.44° C | 85% | 1012.9 hPa | 0 mm | 1.79 m/s, 355° | - | - |
| 1778032131 | 14.44° C | 84% | 1012.9 hPa | 0 mm | 2.24 m/s, 146° | - | - |
| 1778031832 | 14.44° C | 84% | 1012.8 hPa | 0 mm | 2.68 m/s, 167° | - | - |
| 1778031531 | 14.44° C | 84% | 1012.7 hPa | 0 mm | 2.68 m/s, 175° | - | - |
| 1778031229 | 14.44° C | 84% | 1012.7 hPa | 0 mm | 2.68 m/s, 143° | - | - |
| 1778030928 | 14.44° C | 84% | 1012.6 hPa | 0 mm | 2.24 m/s, 161° | - | - |
| 1778030629 | 13.89° C | 84% | 1012.7 hPa | 0 mm | 2.24 m/s, 180° | - | - |
| 1778030326 | 13.89° C | 84% | 1012.7 hPa | 0 mm | 2.24 m/s, 202° | - | - |
| 1778030025 | 13.89° C | 85% | 1012.6 hPa | 0 mm | 2.24 m/s, 189° | - | - |
| 1778029725 | 13.89° C | 84% | 1012.5 hPa | 0 mm | 2.24 m/s, 172° | - | - |
| 1778029425 | 13.89° C | 84% | 1012.4 hPa | 0 mm | 2.24 m/s, 130° | - | - |
| 1778029127 | 13.89° C | 84% | 1012.4 hPa | 0 mm | 2.24 m/s, 172° | - | - |
| 1778028824 | 13.89° C | 83% | 1012.2 hPa | 0 mm | 2.24 m/s, 154° | - | - |
| 1778028523 | 13.89° C | 83% | 1012 hPa | 0 mm | 2.68 m/s, 184° | - | - |
| 1778028221 | 13.89° C | 82% | 1011.9 hPa | 0 mm | 2.68 m/s, 190° | - | - |
| 1778027922 | 13.89° C | 81% | 1011.7 hPa | 0 mm | 3.13 m/s, 150° | - | - |
| 1778027622 | 13.89° C | 81% | 1011.5 hPa | 0 mm | 3.13 m/s, 144° | - | - |
| 1778027320 | 13.89° C | 80% | 1011.5 hPa | 0 mm | 3.13 m/s, 180° | - | - |
| 1778027020 | 13.89° C | 80% | 1011.5 hPa | 0 mm | 2.68 m/s, 172° | - | - |
| 1778026723 | 13.89° C | 79% | 1011.5 hPa | 0 mm | 2.68 m/s, 164° | - | - |
| 1778026299 | 13.89° C | 79% | 1011.5 hPa | 0 mm | 2.68 m/s, 171° | - | - |
| 1778026000 | 13.89° C | 79% | 1011.5 hPa | 0 mm | 2.68 m/s, 165° | - | - |
| 1778025699 | 13.89° C | 79% | 1011.5 hPa | 0 mm | 2.68 m/s, 109° | - | - |
* Rain latest hour (hover to see other rain measurements)
** Current wind speed in m/s (hover to see current wind gust speed)